Sacramento, California
Current Conditions -  °F | °C
As of 9:53 PM on Friday 19 Dec 2014 (Local Time) from KSAC Reporting Station
Overcast Overcast  
Wind Chill: 12°   Ceiling: 2100
Heat Index: 12°   Visibility: 10mi
Dew Point: 10°   Wind: 3mph
Humidity: 89%   Direction: 150°SSE
Pressure: 30.17"   Gusts: NA
Location:  38.58°N, 121.49°W
Report Text: KSAC 200553Z AUTO 15003KT 10SM OVC021 12/10 A3017 RMK AO2 SLP215 60010 T01170100 10122 20111 53006
Loading
Personal Weather Stations






























Interactive Weather Map New forecast layout! Learn more

10-Day Weather Forecast

Advertisements
Track Severe Weather on mobile